CheckWX is a tool to help pilots better visualize weather data.  It is not intended as a substitute for an official pre-flight weather briefing.

07:34:34 UTC

KDZJ METAR
Blairsville Airport
Blairsville, Georgia, USA
Current

20 mins ago

KDZJ 060715Z AUTO 00000KT 10SM SCT070 10/09 A3010 RMK AO2 T00960088
Observed
Apr-6 @ 07:15 UTC
Visibility
Flight Rules
VFR
Cloud Levels
  • Scattered at 7,000' AGL
Temperature
10°C / 50°F
Dewpoint
C / 48°F
Humidity
94%
Altimeter
30.1" Hg
Pressure
1019.32 hPa
Previous

40 mins ago

KDZJ 060655Z AUTO 00000KT 10SM BKN070 10/09 A3010 RMK AO2 T00990087
Observed
Apr-6 @ 06:55 UTC
Visibility
Flight Rules
VFR
Cloud Levels
  • Broken at 7,000' AGL
Temperature
10°C / 50°F
Dewpoint
C / 48°F
Humidity
94%
Altimeter
30.1" Hg
Pressure
1019.32 hPa
Previous

60 mins ago

KDZJ 060635Z AUTO 00000KT 10SM SCT070 09/09 A3010 RMK AO2 T00950087
Observed
Apr-6 @ 06:35 UTC
Visibility
Flight Rules
VFR
Cloud Levels
  • Scattered at 7,000' AGL
Temperature
10°C / 50°F
Dewpoint
C / 48°F
Humidity
94%
Altimeter
30.1" Hg
Pressure
1019.32 hPa